createdAt,value
2022-08-05T00:02:07.674Z,100328.41
2022-08-05T00:06:03.030Z,100331.09
2022-08-05T00:08:37.594Z,100323.88
2022-08-05T00:11:48.499Z,100329.06
2022-08-05T00:14:57.728Z,100324.56
2022-08-05T00:18:02.641Z,100327.56
2022-08-05T00:21:06.494Z,100321.84
2022-08-05T00:24:11.047Z,100325.88
2022-08-05T00:27:18.599Z,100324.72
2022-08-05T00:30:21.323Z,100324.38
2022-08-05T00:34:55.858Z,100323.69
2022-08-05T00:37:10.761Z,100328.56
2022-08-05T00:40:17.605Z,100327.41
2022-08-05T00:43:31.509Z,100318.50
2022-08-05T00:46:54.065Z,100318.50
2022-08-05T00:50:05.197Z,100312.97
2022-08-05T00:53:09.865Z,100320.84
2022-08-05T00:56:31.090Z,100314.47
2022-08-05T00:59:34.554Z,100303.59
2022-08-05T01:02:47.066Z,100308.19
2022-08-05T01:05:54.810Z,100309.53
2022-08-05T01:08:57.660Z,100310.53
2022-08-05T01:12:09.368Z,100305.69
2022-08-05T01:15:35.267Z,100302.63
2022-08-05T01:18:43.191Z,100305.28
2022-08-05T01:21:55.450Z,100299.91
2022-08-05T01:25:40.907Z,100302.44
2022-08-05T01:28:46.047Z,100301.09
2022-08-05T01:31:52.659Z,100301.75
2022-08-05T01:34:59.835Z,100306.78
2022-08-05T01:38:04.194Z,100307.41
2022-08-05T01:41:07.873Z,100309.91
2022-08-05T01:44:12.179Z,100307.81
2022-08-05T01:47:21.177Z,100313.62
2022-08-05T01:50:28.753Z,100319.84
2022-08-05T01:53:57.016Z,100312.44
2022-08-05T01:58:12.657Z,100313.28
2022-08-05T02:00:30.077Z,100309.62
2022-08-05T02:03:39.001Z,100313.97
2022-08-05T02:06:42.553Z,100309.91
2022-08-05T02:09:47.921Z,100320.91
2022-08-05T02:13:04.809Z,100311.87
2022-08-05T02:16:27.547Z,100309.38
2022-08-05T02:19:41.387Z,100309.16
2022-08-05T02:22:59.796Z,100315.72
2022-08-05T02:26:06.121Z,100318.03
2022-08-05T02:29:21.590Z,100311.37
2022-08-05T02:32:31.952Z,100312.00
2022-08-05T02:35:37.659Z,100306.28
2022-08-05T02:38:43.336Z,100302.72
2022-08-05T02:41:58.049Z,100306.56
2022-08-05T02:45:05.019Z,100297.16
2022-08-05T02:48:12.562Z,100296.62
2022-08-05T02:51:16.598Z,100303.00
2022-08-05T02:54:36.414Z,100305.59
2022-08-05T02:58:09.384Z,100305.91
2022-08-05T03:01:03.659Z,100302.56
2022-08-05T03:04:14.063Z,100300.88
2022-08-05T03:08:00.669Z,100295.81
2022-08-05T03:11:55.419Z,100301.78
2022-08-05T03:14:08.031Z,100287.19
2022-08-05T03:17:10.534Z,100283.84
2022-08-05T03:20:13.632Z,100288.88
2022-08-05T03:23:16.560Z,100290.25
2022-08-05T03:26:30.400Z,100290.09
2022-08-05T03:29:45.959Z,100286.72
2022-08-05T03:33:02.010Z,100284.53
2022-08-05T03:36:06.618Z,100278.44
2022-08-05T03:39:20.074Z,100281.97
2022-08-05T03:42:32.346Z,100281.34
2022-08-05T03:45:58.365Z,100283.53
2022-08-05T03:49:02.088Z,100283.69
2022-08-05T03:52:38.841Z,100286.91
2022-08-05T03:56:04.182Z,100290.25
2022-08-05T03:59:02.877Z,100290.09
2022-08-05T04:02:06.422Z,100290.47
2022-08-05T04:05:11.735Z,100288.19
2022-08-05T04:08:30.421Z,100294.91
2022-08-05T04:11:50.400Z,100300.69
2022-08-05T04:14:57.745Z,100294.28
2022-08-05T04:18:07.206Z,100298.78
2022-08-05T04:21:12.011Z,100294.50
2022-08-05T04:24:28.228Z,100291.28
2022-08-05T04:27:41.934Z,100291.13
2022-08-05T04:30:54.270Z,100292.25
2022-08-05T04:34:31.523Z,100298.16
2022-08-05T04:37:19.335Z,100291.16
2022-08-05T04:40:21.837Z,100291.19
2022-08-05T04:43:24.382Z,100291.37
2022-08-05T04:46:28.713Z,100291.47
2022-08-05T04:49:38.781Z,100295.34
2022-08-05T04:52:53.443Z,100298.59
2022-08-05T04:56:15.476Z,100301.25
2022-08-05T04:59:24.344Z,100299.78
2022-08-05T05:02:41.930Z,100291.75
2022-08-05T05:06:40.613Z,100292.78
2022-08-05T05:09:08.458Z,100295.53
2022-08-05T05:12:10.855Z,100293.03
2022-08-05T05:15:17.491Z,100297.72
2022-08-05T05:18:36.678Z,100294.37
2022-08-05T05:21:39.482Z,100292.84
2022-08-05T05:24:57.669Z,100299.38
2022-08-05T05:28:00.883Z,100294.03
2022-08-05T05:31:03.268Z,100297.19
2022-08-05T05:34:09.648Z,100297.53
2022-08-05T05:37:15.666Z,100280.06
2022-08-05T05:40:20.705Z,100284.87
2022-08-05T05:43:58.117Z,100288.09
2022-08-05T05:46:51.294Z,100290.47
2022-08-05T05:50:01.247Z,100289.00
2022-08-05T05:53:21.399Z,100287.19
2022-08-05T05:56:32.470Z,100281.09
2022-08-05T05:59:40.366Z,100281.81
2022-08-05T06:02:43.323Z,100280.13
2022-08-05T06:05:46.037Z,100278.28
2022-08-05T06:08:56.726Z,100284.03
2022-08-05T06:12:02.506Z,100281.78
2022-08-05T06:15:08.132Z,100281.31
2022-08-05T06:18:10.965Z,100280.84
2022-08-05T06:21:18.455Z,100286.44
2022-08-05T06:24:25.786Z,100282.81
2022-08-05T06:28:11.256Z,100280.97
2022-08-05T06:30:52.514Z,100287.09
2022-08-05T06:34:06.889Z,100286.06
2022-08-05T06:37:12.428Z,100280.13
2022-08-05T06:40:18.539Z,100279.19
2022-08-05T06:43:57.440Z,100282.22
2022-08-05T06:46:46.203Z,100283.09
2022-08-05T06:50:00.043Z,100283.28
2022-08-05T06:53:11.640Z,100285.47
2022-08-05T06:56:26.686Z,100286.22
2022-08-05T06:59:29.470Z,100284.09
2022-08-05T07:02:45.773Z,100279.31
2022-08-05T07:05:48.142Z,100279.53
2022-08-05T07:08:54.994Z,100278.47
2022-08-05T07:12:00.461Z,100285.75
2022-08-05T07:15:34.561Z,100284.19
2022-08-05T07:18:47.929Z,100285.38
2022-08-05T07:21:59.881Z,100287.47
2022-08-05T07:25:22.111Z,100283.31
2022-08-05T07:28:27.564Z,100284.78
2022-08-05T07:31:40.883Z,100283.38
2022-08-05T07:34:58.004Z,100287.50
2022-08-05T07:38:01.110Z,100278.81
2022-08-05T07:42:08.442Z,100271.78
2022-08-05T07:44:31.569Z,100268.47
2022-08-05T07:47:42.336Z,100270.34
2022-08-05T07:50:45.335Z,100270.75
2022-08-05T07:53:50.253Z,100265.53
2022-08-05T07:57:01.950Z,100262.84
2022-08-05T08:00:17.597Z,100273.84
2022-08-05T08:03:21.568Z,100274.69
2022-08-05T08:06:24.109Z,100277.19
2022-08-05T08:09:30.995Z,100272.59
2022-08-05T08:12:49.365Z,100275.53
2022-08-05T08:16:35.038Z,100278.44
2022-08-05T08:20:10.058Z,100272.13
2022-08-05T08:22:37.588Z,100264.78
2022-08-05T08:25:59.747Z,100267.63
2022-08-05T08:29:29.479Z,100260.41
2022-08-05T08:32:28.110Z,100263.97
2022-08-05T08:35:35.163Z,100260.00
2022-08-05T08:38:44.047Z,100265.00
2022-08-05T08:41:59.823Z,100263.50
2022-08-05T08:45:23.048Z,100260.59
2022-08-05T08:48:41.599Z,100261.56
2022-08-05T08:52:03.741Z,100262.12
2022-08-05T08:55:19.386Z,100258.28
2022-08-05T08:58:43.019Z,100254.13
2022-08-05T09:01:57.087Z,100254.84
2022-08-05T09:05:17.569Z,100249.78
2022-08-05T09:08:27.423Z,100255.94
2022-08-05T09:11:53.370Z,100251.16
2022-08-05T09:15:05.727Z,100248.81
2022-08-05T09:18:09.679Z,100239.84
2022-08-05T09:21:21.145Z,100240.25
2022-08-05T09:24:38.611Z,100240.59
2022-08-05T09:28:05.496Z,100238.91
2022-08-05T09:31:22.593Z,100228.56
2022-08-05T09:34:55.187Z,100240.31
2022-08-05T09:38:12.893Z,100222.31
2022-08-05T09:41:20.550Z,100218.50
2022-08-05T09:44:42.327Z,100214.03
2022-08-05T09:47:55.516Z,100211.19
2022-08-05T09:51:01.462Z,100218.91
2022-08-05T09:54:08.336Z,100214.94
2022-08-05T09:57:28.137Z,100212.69
2022-08-05T10:00:38.265Z,100204.19
2022-08-05T10:03:58.794Z,100199.66
2022-08-05T10:07:20.597Z,100203.66
2022-08-05T10:10:44.119Z,100195.38
2022-08-05T10:13:48.235Z,100203.75
2022-08-05T10:16:53.518Z,100184.69
2022-08-05T10:20:03.533Z,100182.13
2022-08-05T10:23:55.374Z,100181.78
2022-08-05T10:27:00.602Z,100173.88
2022-08-05T10:30:41.912Z,100179.06
2022-08-05T10:33:31.277Z,100180.47
2022-08-05T10:36:40.500Z,100172.66
2022-08-05T10:40:03.987Z,100162.81
2022-08-05T10:43:36.582Z,100170.22
2022-08-05T10:46:54.220Z,100167.69
2022-08-05T10:50:33.237Z,100165.38
2022-08-05T10:53:42.576Z,100157.69
2022-08-05T10:56:53.150Z,100155.19
2022-08-05T11:00:17.976Z,100156.09
2022-08-05T11:03:24.551Z,100154.03
2022-08-05T11:06:30.839Z,100153.81
2022-08-05T11:09:46.243Z,100145.53
2022-08-05T11:12:54.490Z,100140.00
2022-08-05T11:16:22.139Z,100134.19
2022-08-05T11:20:11.465Z,100134.63
2022-08-05T11:24:04.102Z,100134.00
2022-08-05T11:27:50.124Z,100131.66
2022-08-05T11:30:58.240Z,100130.06
2022-08-05T11:34:08.147Z,100129.88
2022-08-05T11:38:28.186Z,100131.09
2022-08-05T11:41:34.637Z,100127.22
2022-08-05T11:44:53.379Z,100123.72
2022-08-05T11:47:57.830Z,100121.63
2022-08-05T11:51:02.155Z,100126.88
2022-08-05T11:54:05.061Z,100118.03
2022-08-05T11:57:25.089Z,100129.88
2022-08-05T12:00:31.123Z,100130.91
2022-08-05T12:04:06.313Z,100126.41
2022-08-05T12:07:10.866Z,100115.75
2022-08-05T12:10:19.541Z,100112.47
2022-08-05T12:13:47.873Z,100111.75
2022-08-05T12:16:47.306Z,100114.59
2022-08-05T12:20:17.179Z,100113.47
2022-08-05T12:23:15.209Z,100103.75
2022-08-05T12:26:17.630Z,100101.87
2022-08-05T12:29:25.320Z,100101.25
2022-08-05T12:32:28.499Z,100096.38
2022-08-05T12:35:37.213Z,100098.59
2022-08-05T12:38:42.859Z,100099.97
2022-08-05T12:41:45.808Z,100096.75
2022-08-05T12:44:49.252Z,100090.88
2022-08-05T12:48:01.707Z,100084.03
2022-08-05T12:51:21.734Z,100092.72
2022-08-05T12:54:41.815Z,100082.91
2022-08-05T12:58:49.881Z,100079.03
2022-08-05T13:02:02.595Z,100086.91
2022-08-05T13:04:32.514Z,100082.72
2022-08-05T13:07:59.042Z,100079.78
2022-08-05T13:11:02.078Z,100075.69
2022-08-05T13:14:19.476Z,100070.75
2022-08-05T13:17:32.033Z,100064.72
2022-08-05T13:20:45.262Z,100061.09
2022-08-05T13:23:50.892Z,100054.91
2022-08-05T13:26:55.066Z,100048.34
2022-08-05T13:29:59.459Z,100051.88
2022-08-05T13:34:22.810Z,100048.56
2022-08-05T13:36:44.048Z,100034.75
2022-08-05T13:40:16.439Z,100038.22
2022-08-05T13:43:12.201Z,100031.44
2022-08-05T13:46:16.234Z,100023.97
2022-08-05T13:49:18.806Z,100024.31
2022-08-05T13:52:29.207Z,100024.06
2022-08-05T13:55:41.809Z,100021.13
2022-08-05T13:58:53.352Z,100021.78
2022-08-05T14:02:00.059Z,100013.16
2022-08-05T14:05:15.105Z,100014.66
2022-08-05T14:08:27.863Z,100003.22
2022-08-05T14:11:31.245Z,99996.09
2022-08-05T14:14:33.896Z,99999.25
2022-08-05T14:17:36.621Z,99993.66
2022-08-05T14:20:38.965Z,99995.53
2022-08-05T14:23:41.578Z,99990.09
2022-08-05T14:27:02.080Z,99993.84
2022-08-05T14:30:07.444Z,99992.22
2022-08-05T14:33:23.993Z,99980.81
2022-08-05T14:36:26.959Z,99978.09
2022-08-05T14:39:29.469Z,99974.34
2022-08-05T14:42:32.555Z,99974.09
2022-08-05T14:45:35.037Z,99975.31
2022-08-05T14:48:38.114Z,99970.09
2022-08-05T14:51:42.855Z,99976.13
2022-08-05T14:54:52.896Z,99967.22
2022-08-05T14:57:56.481Z,99966.41
2022-08-05T15:01:00.392Z,99964.50
2022-08-05T15:04:06.562Z,99962.53
2022-08-05T15:07:10.151Z,99955.22
2022-08-05T15:10:33.050Z,99956.75
2022-08-05T15:13:45.781Z,99962.78
2022-08-05T15:16:49.039Z,99956.75
2022-08-05T15:19:55.035Z,99957.50
2022-08-05T15:23:04.127Z,99950.72
2022-08-05T15:26:07.503Z,99951.72
